Issaquah, WA

7:47 AM PDT on October 23, 2014 (GMT -0700)
Eastgate (Hills south of I-90 / 148th Ave Jct) | Change Station
CLOSE
Current Station
Personal Weather Station
Location: Bellevue, WA
Elevation: 976 ft
Nearby Weather Stations

Elev 976 ft 47.55 °N, 122.14 °W | Updated 2 minutes ago

Rain
Rain
47.6 °F
Feels Like 48 °F
N
1.0
Wind Variable Wind from SSW
Gusts 3.0 mph

Today
High -- | Low -- °F
--% Chance of Precip.
Yesterday
High -- | Low -- °F
Precip. -- in
7:39 AM 6:05 PM
Waning Crescent, 0% visible
Pressure 29.77 in
Visibility 7.0 miles
Clouds Mostly Cloudy 6000 ft
Overcast 8000 ft
Windchill 48 °F
Dew Point 46 °F
Humidity 95%
Rainfall 0.11 in
Snow Depth Not available.
UV 0 out of 12
Pollen .40 out of 12
Air Quality Not available.
Flu Activity Sporadic
METAR KRNT 231353Z 14005KT 7SM -RA BKN060 OVC080 11/10 A2975 RMK AO2 SLP080 P0005 T01110100

More Conditions Fewer Conditions

Pressure 29.77 in
Visibility 7.0 miles
Clouds Mostly Cloudy 6000 ft
Overcast 8000 ft
Windchill 48 °F
Dew Point 46 °F
Humidity 95%
Rainfall 0.11 in
Snow Depth Not available.
UV 0 out of 12
Pollen .40 out of 12
Air Quality Not available.
Flu Activity Sporadic
METAR KRNT 231353Z 14005KT 7SM -RA BKN060 OVC080 11/10 A2975 RMK AO2 SLP080 P0005 T01110100

More Conditions Fewer Conditions

10-Day Weather Forecast

Almanac

Astronomy

Oct. 23, 2014 Rise Set
Actual Time 7:39 AM PDT 6:05 PM PDT
Civil Twilight 7:07 AM PDT 6:37 PM PDT
Nautical Twilight 6:31 AM PDT 7:13 PM PDT
Astronomical Twilight 5:56 AM PDT 7:48 PM PDT
Moon 7:23 AM PDT 6:10 PM PDT
Length of Visible Light 11h 29m
Length of Day
10h 26m
Tomorrow will be 3m 13s shorter.
Waning Crescent, 0% of the Moon is Illuminated
Today
Waning Crescent
Oct 23
New
Oct 30
First Quarter
Nov 6
Full
Nov 14
Last Quarter

Today's Extremes

State Highs State Lows

Community

WunderPhotos

Upload Photos

1,764,272 photos uploaded!

WunderBlogs® & News

Nearby

Snow Depth

Station Depth Elevation
Alpine Meadows 0 in 3500 ft
Skookum Creek 0 in 3920 ft
Mount Gardner 0 in 3000 ft
Olallie Meadows 1 in 3700 ft
Meadows Pass 1 in 3500 ft

Earthquake Activity

City Distance Mag. Time & Date
No recent earthquake activity has been reported nearby.
Minimum magnitude displayed is 2.5.

Coastal Water Temperatures

Place Temperature
Port Townsend, WA 53.1 °F
Seattle, WA 55.0 °F
Friday Harbor, WA 51.1 °F
Tacoma, WA 54.0 °F

Nearby Weather Stations